2014 UTC 04 March 2015 found at http://aviationweather.gov/adds/metars/
 
METAR text: KMNH 041806Z AUTO 00000KT 7SM -SN BKN013 M11/M16 A3001 RMK AO2
Conditions at: KMNH (MONUMENT/ELBERT , CO, US) observed 1806 UTC 04 March 2015
Temperature: -11.0°C (12°F)
Dewpoint: -16.0°C (3°F) [RH = 67%]
Pressure (altimeter): 30.01 inches Hg (1016.3 mb)
Winds: calm
Visibility: 7 miles (11 km)
Ceiling: 1300 feet AGL
Clouds: broken clouds at 1300 feet AGL
Weather: -SN  (light snow)

METAR text: KMNH 041756Z AUTO 12004KT 10SM OVC013 M10/M16 A3001 RMK AO2
Conditions at: KMNH (MONUMENT/ELBERT , CO, US) observed 1756 UTC 04 March 2015
Temperature: -10.0°C (14°F)
Dewpoint: -16.0°C (3°F) [RH = 61%]
Pressure (altimeter): 30.01 inches Hg (1016.3 mb)
Winds: from the ESE (120 degrees) at 5 MPH (4 knots; 2.1 m/s)
Visibility: 10 or more miles (16+ km)
Ceiling: 1300 feet AGL
Clouds: overcast cloud deck at 1300 feet AGL
Weather: automated observation with no human augmentation;
there may or may not be significant weather present at this time

METAR text: KMNH 041736Z AUTO 00000KT 10SM OVC013 M11/M16 A3001 RMK AO2
Conditions at: KMNH (MONUMENT/ELBERT , CO, US) observed 1736 UTC 04 March 2015
Temperature: -11.0°C (12°F)
Dewpoint: -16.0°C (3°F) [RH = 67%]
Pressure (altimeter): 30.01 inches Hg (1016.3 mb)
Winds: calm
Visibility: 10 or more miles (16+ km)
Ceiling: 1300 feet AGL
Clouds: overcast cloud deck at 1300 feet AGL
Weather: automated observation with no human augmentation;
there may or may not be significant weather present at this time

METAR text: KMNH 041715Z AUTO 11004KT 7SM SCT010 OVC016 M11/M16 A3001 RMK AO2
Conditions at: KMNH (MONUMENT/ELBERT , CO, US) observed 1715 UTC 04 March 2015
Temperature: -11.0°C (12°F)
Dewpoint: -16.0°C (3°F) [RH = 67%]
Pressure (altimeter): 30.01 inches Hg (1016.3 mb)
Winds: from the ESE (110 degrees) at 5 MPH (4 knots; 2.1 m/s)
Visibility: 7 miles (11 km)
Ceiling: 1600 feet AGL
Clouds: scattered clouds at 1000 feet AGL
overcast cloud deck at 1600 feet AGL
Weather: automated observation with no human augmentation;
there may or may not be significant weather present at this time

METAR text: KMNH 041656Z AUTO 00000KT 4SM -SN SCT010 OVC016 M11/M16 A3001 RMK AO2
Conditions at: KMNH (MONUMENT/ELBERT , CO, US) observed 1656 UTC 04 March 2015
Temperature: -11.0°C (12°F)
Dewpoint: -16.0°C (3°F) [RH = 67%]
Pressure (altimeter): 30.01 inches Hg (1016.3 mb)
Winds: calm
Visibility: 4 miles (6 km)
Ceiling: 1600 feet AGL
Clouds: scattered clouds at 1000 feet AGL
overcast cloud deck at 1600 feet AGL
Weather: -SN  (light snow)

METAR text: KMNH 041636Z AUTO 11003KT 5SM -SN OVC016 M12/M16 A3002 RMK AO2 P0001
Conditions at: KMNH (MONUMENT/ELBERT , CO, US) observed 1636 UTC 04 March 2015
Temperature: -12.0°C (10°F)
Dewpoint: -16.0°C (3°F) [RH = 72%]
Pressure (altimeter): 30.02 inches Hg (1016.7 mb)
Winds: from the ESE (110 degrees) at 3 MPH (3 knots; 1.6 m/s)
Visibility: 5 miles (8 km)
Ceiling: 1600 feet AGL
Clouds: overcast cloud deck at 1600 feet AGL
Weather: -SN  (light snow)

METAR text: KMNH 041616Z AUTO 00000KT 5SM HZ BKN014 OVC021 M12/M16 A3002 RMK AO2 P0001
Conditions at: KMNH (MONUMENT/ELBERT , CO, US) observed 1616 UTC 04 March 2015
Temperature: -12.0°C (10°F)
Dewpoint: -16.0°C (3°F) [RH = 72%]
Pressure (altimeter): 30.02 inches Hg (1016.7 mb)
Winds: calm
Visibility: 5 miles (8 km)
Ceiling: 1400 feet AGL
Clouds: broken clouds at 1400 feet AGL
overcast cloud deck at 2100 feet AGL
Weather: HZ  (haze)

METAR text: KMNH 041556Z AUTO 04003KT 1 1/2SM -SN OVC012 M12/M16 A3002 RMK AO2
Conditions at: KMNH (MONUMENT/ELBERT , CO, US) observed 1556 UTC 04 March 2015
Temperature: -12.0°C (10°F)
Dewpoint: -16.0°C (3°F) [RH = 72%]
Pressure (altimeter): 30.02 inches Hg (1016.7 mb)
Winds: from the NE (40 degrees) at 3 MPH (3 knots; 1.6 m/s)
Visibility: 1.50 miles (2.41 km)
Ceiling: 1200 feet AGL
Clouds: overcast cloud deck at 1200 feet AGL
Weather: -SN  (light snow)

METAR text: KMNH 041536Z AUTO 03004KT 2SM -SN BKN010 OVC018 M12/M16 A3002 RMK AO2
Conditions at: KMNH (MONUMENT/ELBERT , CO, US) observed 1536 UTC 04 March 2015
Temperature: -12.0°C (10°F)
Dewpoint: -16.0°C (3°F) [RH = 72%]
Pressure (altimeter): 30.02 inches Hg (1016.7 mb)
Winds: from the NNE (30 degrees) at 5 MPH (4 knots; 2.1 m/s)
Visibility: 2.00 miles (3.22 km)
Ceiling: 1000 feet AGL
Clouds: broken clouds at 1000 feet AGL
overcast cloud deck at 1800 feet AGL
Weather: -SN  (light snow)

METAR text: KMNH 041516Z AUTO 01004KT 1 3/4SM -SN OVC010 M13/M16 A3002 RMK AO2
Conditions at: KMNH (MONUMENT/ELBERT , CO, US) observed 1516 UTC 04 March 2015
Temperature: -13.0°C (9°F)
Dewpoint: -16.0°C (3°F) [RH = 78%]
Pressure (altimeter): 30.02 inches Hg (1016.7 mb)
Winds: from the N (10 degrees) at 5 MPH (4 knots; 2.1 m/s)
Visibility: 1.75 miles (2.82 km)
Ceiling: 1000 feet AGL
Clouds: overcast cloud deck at 1000 feet AGL
Weather: -SN  (light snow)

METAR text: KMNH 041456Z AUTO 36006KT 3SM -SN SCT010 BKN018 OVC023 M14/M16 A3001 RMK AO2
Conditions at: KMNH (MONUMENT/ELBERT , CO, US) observed 1456 UTC 04 March 2015
Temperature: -14.0°C (7°F)
Dewpoint: -16.0°C (3°F) [RH = 85%]
Pressure (altimeter): 30.01 inches Hg (1016.3 mb)
Winds: from the N (360 degrees) at 7 MPH (6 knots; 3.1 m/s)
Visibility: 3 miles (5 km)
Ceiling: 1800 feet AGL
Clouds: scattered clouds at 1000 feet AGL
broken clouds at 1800 feet AGL
overcast cloud deck at 2300 feet AGL
Weather: -SN  (light snow)

METAR text: KMNH 041436Z AUTO 01004KT 1SM -SN OVC010 M14/M16 A2999 RMK AO2
Conditions at: KMNH (MONUMENT/ELBERT , CO, US) observed 1436 UTC 04 March 2015
Temperature: -14.0°C (7°F)
Dewpoint: -16.0°C (3°F) [RH = 85%]
Pressure (altimeter): 29.99 inches Hg (1015.7 mb)
Winds: from the N (10 degrees) at 5 MPH (4 knots; 2.1 m/s)
Visibility: 1.00 miles (1.61 km)
Ceiling: 1000 feet AGL
Clouds: overcast cloud deck at 1000 feet AGL
Weather: -SN  (light snow)

METAR text: KMNH 041416Z AUTO 01004KT 1 1/4SM -SN OVC008 M15/M16 A2999 RMK AO2
Conditions at: KMNH (MONUMENT/ELBERT , CO, US) observed 1416 UTC 04 March 2015
Temperature: -15.0°C (5°F)
Dewpoint: -16.0°C (3°F) [RH = 92%]
Pressure (altimeter): 29.99 inches Hg (1015.7 mb)
Winds: from the N (10 degrees) at 5 MPH (4 knots; 2.1 m/s)
Visibility: 1.25 miles (2.01 km)
Ceiling: 800 feet AGL
Clouds: overcast cloud deck at 800 feet AGL
Weather: -SN  (light snow)

METAR text: KMNH 041356Z AUTO 01004KT 1 1/4SM -SN OVC008 M15/M16 A2997 RMK AO2
Conditions at: KMNH (MONUMENT/ELBERT , CO, US) observed 1356 UTC 04 March 2015
Temperature: -15.0°C (5°F)
Dewpoint: -16.0°C (3°F) [RH = 92%]
Pressure (altimeter): 29.97 inches Hg (1015.0 mb)
Winds: from the N (10 degrees) at 5 MPH (4 knots; 2.1 m/s)
Visibility: 1.25 miles (2.01 km)
Ceiling: 800 feet AGL
Clouds: overcast cloud deck at 800 feet AGL
Weather: -SN  (light snow)

METAR text: KMNH 041336Z AUTO 01004KT 2 1/2SM -SN OVC014 M15/M16 A2997 RMK AO2 VIS 1 3/4V4
Conditions at: KMNH (MONUMENT/ELBERT , CO, US) observed 1336 UTC 04 March 2015
Temperature: -15.0°C (5°F)
Dewpoint: -16.0°C (3°F) [RH = 92%]
Pressure (altimeter): 29.97 inches Hg (1015.0 mb)
Winds: from the N (10 degrees) at 5 MPH (4 knots; 2.1 m/s)
Visibility: 2.50 miles (4.02 km)
Ceiling: 1400 feet AGL
Clouds: overcast cloud deck at 1400 feet AGL
Weather: -SN  (light snow)

METAR text: KMNH 041316Z AUTO 35006KT 3SM -SN SCT007 OVC014 M15/M16 A2997 RMK AO2
Conditions at: KMNH (MONUMENT/ELBERT , CO, US) observed 1316 UTC 04 March 2015
Temperature: -15.0°C (5°F)
Dewpoint: -16.0°C (3°F) [RH = 92%]
Pressure (altimeter): 29.97 inches Hg (1015.0 mb)
Winds: from the N (350 degrees) at 7 MPH (6 knots; 3.1 m/s)
Visibility: 3 miles (5 km)
Ceiling: 1400 feet AGL
Clouds: scattered clouds at 700 feet AGL
overcast cloud deck at 1400 feet AGL
Weather: -SN  (light snow)

METAR text: KMNH 041256Z AUTO 01003KT 1 1/4SM -SN OVC007 M15/M16 A2995 RMK AO2
Conditions at: KMNH (MONUMENT/ELBERT , CO, US) observed 1256 UTC 04 March 2015
Temperature: -15.0°C (5°F)
Dewpoint: -16.0°C (3°F) [RH = 92%]
Pressure (altimeter): 29.95 inches Hg (1014.3 mb)
Winds: from the N (10 degrees) at 3 MPH (3 knots; 1.6 m/s)
Visibility: 1.25 miles (2.01 km)
Ceiling: 700 feet AGL
Clouds: overcast cloud deck at 700 feet AGL
Weather: -SN  (light snow)

METAR text: KMNH 041236Z AUTO 01005KT 3SM -SN BKN010 BKN015 OVC019 M15/M16 A2995 RMK AO2 P0001
Conditions at: KMNH (MONUMENT/ELBERT , CO, US) observed 1236 UTC 04 March 2015
Temperature: -15.0°C (5°F)
Dewpoint: -16.0°C (3°F) [RH = 92%]
Pressure (altimeter): 29.95 inches Hg (1014.3 mb)
Winds: from the N (10 degrees) at 6 MPH (5 knots; 2.6 m/s)
Visibility: 3 miles (5 km)
Ceiling: 1000 feet AGL
Clouds: broken clouds at 1000 feet AGL
broken clouds at 1500 feet AGL
overcast cloud deck at 1900 feet AGL
Weather: -SN  (light snow)

METAR text: KMNH 041216Z AUTO 02006KT 3SM -SN OVC009 M15/M17 A2994 RMK AO2 P0001
Conditions at: KMNH (MONUMENT/ELBERT , CO, US) observed 1216 UTC 04 March 2015
Temperature: -15.0°C (5°F)
Dewpoint: -17.0°C (1°F) [RH = 85%]
Pressure (altimeter): 29.94 inches Hg (1014.0 mb)
Winds: from the NNE (20 degrees) at 7 MPH (6 knots; 3.1 m/s)
Visibility: 3 miles (5 km)
Ceiling: 900 feet AGL
Clouds: overcast cloud deck at 900 feet AGL
Weather: -SN  (light snow)

METAR text: KMNH 041156Z AUTO 01008KT 2SM -SN BKN007 OVC013 M15/M17 A2994 RMK AO2
Conditions at: KMNH (MONUMENT/ELBERT , CO, US) observed 1156 UTC 04 March 2015
Temperature: -15.0°C (5°F)
Dewpoint: -17.0°C (1°F) [RH = 85%]
Pressure (altimeter): 29.94 inches Hg (1014.0 mb)
Winds: from the N (10 degrees) at 9 MPH (8 knots; 4.2 m/s)
Visibility: 2.00 miles (3.22 km)
Ceiling: 700 feet AGL
Clouds: broken clouds at 700 feet AGL
overcast cloud deck at 1300 feet AGL
Weather: -SN  (light snow)

METAR text: KMNH 041136Z AUTO 01007KT 2 1/2SM -SN OVC011 M15/M16 A2993 RMK AO2
Conditions at: KMNH (MONUMENT/ELBERT , CO, US) observed 1136 UTC 04 March 2015
Temperature: -15.0°C (5°F)
Dewpoint: -16.0°C (3°F) [RH = 92%]
Pressure (altimeter): 29.93 inches Hg (1013.6 mb)
Winds: from the N (10 degrees) at 8 MPH (7 knots; 3.6 m/s)
Visibility: 2.50 miles (4.02 km)
Ceiling: 1100 feet AGL
Clouds: overcast cloud deck at 1100 feet AGL
Weather: -SN  (light snow)

METAR text: KMNH 041116Z AUTO 04007KT 3SM -SN OVC007 M14/M16 A2991 RMK AO2
Conditions at: KMNH (MONUMENT/ELBERT , CO, US) observed 1116 UTC 04 March 2015
Temperature: -14.0°C (7°F)
Dewpoint: -16.0°C (3°F) [RH = 85%]
Pressure (altimeter): 29.91 inches Hg (1013.0 mb)
Winds: from the NE (40 degrees) at 8 MPH (7 knots; 3.6 m/s)
Visibility: 3 miles (5 km)
Ceiling: 700 feet AGL
Clouds: overcast cloud deck at 700 feet AGL
Weather: -SN  (light snow)

METAR text: KMNH 041056Z AUTO 03008KT 1 1/4SM -SN OVC005 M14/M16 A2989 RMK AO2
Conditions at: KMNH (MONUMENT/ELBERT , CO, US) observed 1056 UTC 04 March 2015
Temperature: -14.0°C (7°F)
Dewpoint: -16.0°C (3°F) [RH = 85%]
Pressure (altimeter): 29.89 inches Hg (1012.3 mb)
Winds: from the NNE (30 degrees) at 9 MPH (8 knots; 4.2 m/s)
Visibility: 1.25 miles (2.01 km)
Ceiling: 500 feet AGL
Clouds: overcast cloud deck at 500 feet AGL
Weather: -SN  (light snow)

METAR text: KMNH 041036Z AUTO 03009KT 1 1/4SM SN OVC005 M13/M15 A2989 RMK AO2
Conditions at: KMNH (MONUMENT/ELBERT , CO, US) observed 1036 UTC 04 March 2015
Temperature: -13.0°C (9°F)
Dewpoint: -15.0°C (5°F) [RH = 85%]
Pressure (altimeter): 29.89 inches Hg (1012.3 mb)
Winds: from the NNE (30 degrees) at 10 MPH (9 knots; 4.7 m/s)
Visibility: 1.25 miles (2.01 km)
Ceiling: 500 feet AGL
Clouds: overcast cloud deck at 500 feet AGL
Weather: SN  (snow)

METAR text: KMNH 041016Z AUTO 02008KT 1 1/2SM -SN OVC007 M12/M14 A2987 RMK AO2
Conditions at: KMNH (MONUMENT/ELBERT , CO, US) observed 1016 UTC 04 March 2015
Temperature: -12.0°C (10°F)
Dewpoint: -14.0°C (7°F) [RH = 85%]
Pressure (altimeter): 29.87 inches Hg (1011.6 mb)
Winds: from the NNE (20 degrees) at 9 MPH (8 knots; 4.2 m/s)
Visibility: 1.50 miles (2.41 km)
Ceiling: 700 feet AGL
Clouds: overcast cloud deck at 700 feet AGL
Weather: -SN  (light snow)

METAR text: KMNH 040956Z AUTO 03007KT 2SM -SN OVC007 M12/M13 A2987 RMK AO2
Conditions at: KMNH (MONUMENT/ELBERT , CO, US) observed 0956 UTC 04 March 2015
Temperature: -12.0°C (10°F)
Dewpoint: -13.0°C (9°F) [RH = 92%]
Pressure (altimeter): 29.87 inches Hg (1011.6 mb)
Winds: from the NNE (30 degrees) at 8 MPH (7 knots; 3.6 m/s)
Visibility: 2.00 miles (3.22 km)
Ceiling: 700 feet AGL
Clouds: overcast cloud deck at 700 feet AGL
Weather: -SN  (light snow)

METAR text: KMNH 040936Z AUTO 03005KT 1 1/2SM -SN BKN005 OVC010 M11/M12 A2987 RMK AO2
Conditions at: KMNH (MONUMENT/ELBERT , CO, US) observed 0936 UTC 04 March 2015
Temperature: -11.0°C (12°F)
Dewpoint: -12.0°C (10°F) [RH = 92%]
Pressure (altimeter): 29.87 inches Hg (1011.6 mb)
Winds: from the NNE (30 degrees) at 6 MPH (5 knots; 2.6 m/s)
Visibility: 1.50 miles (2.41 km)
Ceiling: 500 feet AGL
Clouds: broken clouds at 500 feet AGL
overcast cloud deck at 1000 feet AGL
Weather: -SN  (light snow)

METAR text: KMNH 040916Z AUTO 01004KT 5SM -SN BKN008 OVC023 M11/M12 A2986 RMK AO2
Conditions at: KMNH (MONUMENT/ELBERT , CO, US) observed 0916 UTC 04 March 2015
Temperature: -11.0°C (12°F)
Dewpoint: -12.0°C (10°F) [RH = 92%]
Pressure (altimeter): 29.86 inches Hg (1011.3 mb)
Winds: from the N (10 degrees) at 5 MPH (4 knots; 2.1 m/s)
Visibility: 5 miles (8 km)
Ceiling: 800 feet AGL
Clouds: broken clouds at 800 feet AGL
overcast cloud deck at 2300 feet AGL
Weather: -SN  (light snow)

METAR text: KMNH 040856Z AUTO 01007KT 4SM -SN OVC008 M11/M12 A2985 RMK AO2
Conditions at: KMNH (MONUMENT/ELBERT , CO, US) observed 0856 UTC 04 March 2015
Temperature: -11.0°C (12°F)
Dewpoint: -12.0°C (10°F) [RH = 92%]
Pressure (altimeter): 29.85 inches Hg (1010.9 mb)
Winds: from the N (10 degrees) at 8 MPH (7 knots; 3.6 m/s)
Visibility: 4 miles (6 km)
Ceiling: 800 feet AGL
Clouds: overcast cloud deck at 800 feet AGL
Weather: -SN  (light snow)

METAR text: KMNH 040836Z AUTO 35006KT 4SM -SN BKN008 OVC022 M10/M11 A2985 RMK AO2
Conditions at: KMNH (MONUMENT/ELBERT , CO, US) observed 0836 UTC 04 March 2015
Temperature: -10.0°C (14°F)
Dewpoint: -11.0°C (12°F) [RH = 92%]
Pressure (altimeter): 29.85 inches Hg (1010.9 mb)
Winds: from the N (350 degrees) at 7 MPH (6 knots; 3.1 m/s)
Visibility: 4 miles (6 km)
Ceiling: 800 feet AGL
Clouds: broken clouds at 800 feet AGL
overcast cloud deck at 2200 feet AGL
Weather: -SN  (light snow)

METAR text: KMNH 040816Z AUTO 35005KT 2 1/2SM -SN SCT008 OVC020 M10/M11 A2984 RMK AO2
Conditions at: KMNH (MONUMENT/ELBERT , CO, US) observed 0816 UTC 04 March 2015
Temperature: -10.0°C (14°F)
Dewpoint: -11.0°C (12°F) [RH = 92%]
Pressure (altimeter): 29.84 inches Hg (1010.6 mb)
Winds: from the N (350 degrees) at 6 MPH (5 knots; 2.6 m/s)
Visibility: 2.50 miles (4.02 km)
Ceiling: 2000 feet AGL
Clouds: scattered clouds at 800 feet AGL
overcast cloud deck at 2000 feet AGL
Weather: -SN  (light snow)

METAR text: KMNH 040755Z AUTO 36005KT 3SM -SN SCT006 OVC018 M10/M11 A2984 RMK AO2
Conditions at: KMNH (MONUMENT/ELBERT , CO, US) observed 0755 UTC 04 March 2015
Temperature: -10.0°C (14°F)
Dewpoint: -11.0°C (12°F) [RH = 92%]
Pressure (altimeter): 29.84 inches Hg (1010.6 mb)
Winds: from the N (360 degrees) at 6 MPH (5 knots; 2.6 m/s)
Visibility: 3 miles (5 km)
Ceiling: 1800 feet AGL
Clouds: scattered clouds at 600 feet AGL
overcast cloud deck at 1800 feet AGL
Weather: -SN  (light snow)

METAR text: KMNH 040736Z AUTO 36005KT 3SM -SN OVC006 M10/M11 A2983 RMK AO2
Conditions at: KMNH (MONUMENT/ELBERT , CO, US) observed 0736 UTC 04 March 2015
Temperature: -10.0°C (14°F)
Dewpoint: -11.0°C (12°F) [RH = 92%]
Pressure (altimeter): 29.83 inches Hg (1010.2 mb)
Winds: from the N (360 degrees) at 6 MPH (5 knots; 2.6 m/s)
Visibility: 3 miles (5 km)
Ceiling: 600 feet AGL
Clouds: overcast cloud deck at 600 feet AGL
Weather: -SN  (light snow)

METAR text: KMNH 040716Z AUTO 01006KT 3SM -SN OVC006 M10/M11 A2983 RMK AO2
Conditions at: KMNH (MONUMENT/ELBERT , CO, US) observed 0716 UTC 04 March 2015
Temperature: -10.0°C (14°F)
Dewpoint: -11.0°C (12°F) [RH = 92%]
Pressure (altimeter): 29.83 inches Hg (1010.2 mb)
Winds: from the N (10 degrees) at 7 MPH (6 knots; 3.1 m/s)
Visibility: 3 miles (5 km)
Ceiling: 600 feet AGL
Clouds: overcast cloud deck at 600 feet AGL
Weather: -SN  (light snow)

METAR text: KMNH 040656Z AUTO 02006KT 4SM -SN OVC006 M09/M10 A2982 RMK AO2
Conditions at: KMNH (MONUMENT/ELBERT , CO, US) observed 0656 UTC 04 March 2015
Temperature: -9.0°C (16°F)
Dewpoint: -10.0°C (14°F) [RH = 92%]
Pressure (altimeter): 29.82 inches Hg (1009.9 mb)
Winds: from the NNE (20 degrees) at 7 MPH (6 knots; 3.1 m/s)
Visibility: 4 miles (6 km)
Ceiling: 600 feet AGL
Clouds: overcast cloud deck at 600 feet AGL
Weather: -SN  (light snow)

METAR text: KMNH 040636Z AUTO 36006KT 3SM -SN OVC006 M09/M10 A2982 RMK AO2
Conditions at: KMNH (MONUMENT/ELBERT , CO, US) observed 0636 UTC 04 March 2015
Temperature: -9.0°C (16°F)
Dewpoint: -10.0°C (14°F) [RH = 92%]
Pressure (altimeter): 29.82 inches Hg (1009.9 mb)
Winds: from the N (360 degrees) at 7 MPH (6 knots; 3.1 m/s)
Visibility: 3 miles (5 km)
Ceiling: 600 feet AGL
Clouds: overcast cloud deck at 600 feet AGL
Weather: -SN  (light snow)

METAR text: KMNH 040616Z AUTO 36003KT 5SM -SN OVC004 M09/M10 A2981 RMK AO2
Conditions at: KMNH (MONUMENT/ELBERT , CO, US) observed 0616 UTC 04 March 2015
Temperature: -9.0°C (16°F)
Dewpoint: -10.0°C (14°F) [RH = 92%]
Pressure (altimeter): 29.81 inches Hg (1009.6 mb)
Winds: from the N (360 degrees) at 3 MPH (3 knots; 1.6 m/s)
Visibility: 5 miles (8 km)
Ceiling: 400 feet AGL
Clouds: overcast cloud deck at 400 feet AGL
Weather: -SN  (light snow)

METAR text: KMNH 040556Z AUTO 29009KT 5SM -SN OVC002 M09/M10 A2981 RMK AO2
Conditions at: KMNH (MONUMENT/ELBERT , CO, US) observed 0556 UTC 04 March 2015
Temperature: -9.0°C (16°F)
Dewpoint: -10.0°C (14°F) [RH = 92%]
Pressure (altimeter): 29.81 inches Hg (1009.6 mb)
Winds: from the WNW (290 degrees) at 10 MPH (9 knots; 4.7 m/s)
Visibility: 5 miles (8 km)
Ceiling: 200 feet AGL
Clouds: overcast cloud deck at 200 feet AGL
Weather: -SN  (light snow)

METAR text: KMNH 040536Z AUTO 28007KT 5SM -SN OVC004 M08/M09 A2981 RMK AO2
Conditions at: KMNH (MONUMENT/ELBERT , CO, US) observed 0536 UTC 04 March 2015
Temperature: -8.0°C (18°F)
Dewpoint: -9.0°C (16°F) [RH = 92%]
Pressure (altimeter): 29.81 inches Hg (1009.6 mb)
Winds: from the W (280 degrees) at 8 MPH (7 knots; 3.6 m/s)
Visibility: 5 miles (8 km)
Ceiling: 400 feet AGL
Clouds: overcast cloud deck at 400 feet AGL
Weather: -SN  (light snow)

METAR text: KMNH 040516Z AUTO 28008KT 5SM BR OVC004 M08/M10 A2981 RMK AO2
Conditions at: KMNH (MONUMENT/ELBERT , CO, US) observed 0516 UTC 04 March 2015
Temperature: -8.0°C (18°F)
Dewpoint: -10.0°C (14°F) [RH = 85%]
Pressure (altimeter): 29.81 inches Hg (1009.6 mb)
Winds: from the W (280 degrees) at 9 MPH (8 knots; 4.2 m/s)
Visibility: 5 miles (8 km)
Ceiling: 400 feet AGL
Clouds: overcast cloud deck at 400 feet AGL
Weather: BR  (mist)

METAR text: KMNH 040456Z AUTO 20005KT 10SM OVC006 M07/M08 A2981 RMK AO2
Conditions at: KMNH (MONUMENT/ELBERT , CO, US) observed 0456 UTC 04 March 2015
Temperature: -7.0°C (19°F)
Dewpoint: -8.0°C (18°F) [RH = 93%]
Pressure (altimeter): 29.81 inches Hg (1009.6 mb)
Winds: from the SSW (200 degrees) at 6 MPH (5 knots; 2.6 m/s)
Visibility: 10 or more miles (16+ km)
Ceiling: 600 feet AGL
Clouds: overcast cloud deck at 600 feet AGL
Weather: automated observation with no human augmentation;
there may or may not be significant weather present at this time

METAR text: KMNH 040436Z AUTO 13005KT 7SM -SN OVC006 M07/M08 A2981 RMK AO2
Conditions at: KMNH (MONUMENT/ELBERT , CO, US) observed 0436 UTC 04 March 2015
Temperature: -7.0°C (19°F)
Dewpoint: -8.0°C (18°F) [RH = 93%]
Pressure (altimeter): 29.81 inches Hg (1009.6 mb)
Winds: from the SE (130 degrees) at 6 MPH (5 knots; 2.6 m/s)
Visibility: 7 miles (11 km)
Ceiling: 600 feet AGL
Clouds: overcast cloud deck at 600 feet AGL
Weather: -SN  (light snow)

METAR text: KMNH 040416Z AUTO 15005KT 10SM OVC006 M08/M08 A2979 RMK AO2
Conditions at: KMNH (MONUMENT/ELBERT , CO, US) observed 0416 UTC 04 March 2015
Temperature: -8.0°C (18°F)
Dewpoint: -8.0°C (18°F) [RH = 100%]
Pressure (altimeter): 29.79 inches Hg (1008.9 mb)
Winds: from the SSE (150 degrees) at 6 MPH (5 knots; 2.6 m/s)
Visibility: 10 or more miles (16+ km)
Ceiling: 600 feet AGL
Clouds: overcast cloud deck at 600 feet AGL
Weather: automated observation with no human augmentation;
there may or may not be significant weather present at this time

METAR text: KMNH 040356Z AUTO 13005KT 10SM OVC006 M08/M09 A2979 RMK AO2
Conditions at: KMNH (MONUMENT/ELBERT , CO, US) observed 0356 UTC 04 March 2015
Temperature: -8.0°C (18°F)
Dewpoint: -9.0°C (16°F) [RH = 92%]
Pressure (altimeter): 29.79 inches Hg (1008.9 mb)
Winds: from the SE (130 degrees) at 6 MPH (5 knots; 2.6 m/s)
Visibility: 10 or more miles (16+ km)
Ceiling: 600 feet AGL
Clouds: overcast cloud deck at 600 feet AGL
Weather: automated observation with no human augmentation;
there may or may not be significant weather present at this time

METAR text: KMNH 040335Z AUTO 14006KT 10SM OVC008 M08/M09 A2978 RMK AO2
Conditions at: KMNH (MONUMENT/ELBERT , CO, US) observed 0335 UTC 04 March 2015
Temperature: -8.0°C (18°F)
Dewpoint: -9.0°C (16°F) [RH = 92%]
Pressure (altimeter): 29.78 inches Hg (1008.5 mb)
Winds: from the SE (140 degrees) at 7 MPH (6 knots; 3.1 m/s)
Visibility: 10 or more miles (16+ km)
Ceiling: 800 feet AGL
Clouds: overcast cloud deck at 800 feet AGL
Weather: automated observation with no human augmentation;
there may or may not be significant weather present at this time

METAR text: KMNH 040316Z AUTO 14007KT 10SM OVC010 M08/M09 A2977 RMK AO2
Conditions at: KMNH (MONUMENT/ELBERT , CO, US) observed 0316 UTC 04 March 2015
Temperature: -8.0°C (18°F)
Dewpoint: -9.0°C (16°F) [RH = 92%]
Pressure (altimeter): 29.77 inches Hg (1008.2 mb)
Winds: from the SE (140 degrees) at 8 MPH (7 knots; 3.6 m/s)
Visibility: 10 or more miles (16+ km)
Ceiling: 1000 feet AGL
Clouds: overcast cloud deck at 1000 feet AGL
Weather: automated observation with no human augmentation;
there may or may not be significant weather present at this time

METAR text: KMNH 040256Z AUTO 14008KT 10SM OVC012 M08/M10 A2977 RMK AO2
Conditions at: KMNH (MONUMENT/ELBERT , CO, US) observed 0256 UTC 04 March 2015
Temperature: -8.0°C (18°F)
Dewpoint: -10.0°C (14°F) [RH = 85%]
Pressure (altimeter): 29.77 inches Hg (1008.2 mb)
Winds: from the SE (140 degrees) at 9 MPH (8 knots; 4.2 m/s)
Visibility: 10 or more miles (16+ km)
Ceiling: 1200 feet AGL
Clouds: overcast cloud deck at 1200 feet AGL
Weather: automated observation with no human augmentation;
there may or may not be significant weather present at this time

METAR text: KMNH 040236Z AUTO 15007KT 10SM SCT009 OVC014 M08/M10 A2977 RMK AO2
Conditions at: KMNH (MONUMENT/ELBERT , CO, US) observed 0236 UTC 04 March 2015
Temperature: -8.0°C (18°F)
Dewpoint: -10.0°C (14°F) [RH = 85%]
Pressure (altimeter): 29.77 inches Hg (1008.2 mb)
Winds: from the SSE (150 degrees) at 8 MPH (7 knots; 3.6 m/s)
Visibility: 10 or more miles (16+ km)
Ceiling: 1400 feet AGL
Clouds: scattered clouds at 900 feet AGL
overcast cloud deck at 1400 feet AGL
Weather: automated observation with no human augmentation;
there may or may not be significant weather present at this time

METAR text: KMNH 040216Z AUTO 11006KT 10SM OVC014 M08/M09 A2977 RMK AO2
Conditions at: KMNH (MONUMENT/ELBERT , CO, US) observed 0216 UTC 04 March 2015
Temperature: -8.0°C (18°F)
Dewpoint: -9.0°C (16°F) [RH = 92%]
Pressure (altimeter): 29.77 inches Hg (1008.2 mb)
Winds: from the ESE (110 degrees) at 7 MPH (6 knots; 3.1 m/s)
Visibility: 10 or more miles (16+ km)
Ceiling: 1400 feet AGL
Clouds: overcast cloud deck at 1400 feet AGL
Weather: automated observation with no human augmentation;
there may or may not be significant weather present at this time

METAR text: KMNH 040155Z AUTO 14010KT 10SM OVC014 M08/M09 A2975 RMK AO2
Conditions at: KMNH (MONUMENT/ELBERT , CO, US) observed 0155 UTC 04 March 2015
Temperature: -8.0°C (18°F)
Dewpoint: -9.0°C (16°F) [RH = 92%]
Pressure (altimeter): 29.75 inches Hg (1007.5 mb)
Winds: from the SE (140 degrees) at 12 MPH (10 knots; 5.2 m/s)
Visibility: 10 or more miles (16+ km)
Ceiling: 1400 feet AGL
Clouds: overcast cloud deck at 1400 feet AGL
Weather: automated observation with no human augmentation;
there may or may not be significant weather present at this time

METAR text: KMNH 040136Z AUTO 12006KT 3SM -SN OVC012 M08/M09 A2974 RMK AO2
Conditions at: KMNH (MONUMENT/ELBERT , CO, US) observed 0136 UTC 04 March 2015
Temperature: -8.0°C (18°F)
Dewpoint: -9.0°C (16°F) [RH = 92%]
Pressure (altimeter): 29.74 inches Hg (1007.2 mb)
Winds: from the ESE (120 degrees) at 7 MPH (6 knots; 3.1 m/s)
Visibility: 3 miles (5 km)
Ceiling: 1200 feet AGL
Clouds: overcast cloud deck at 1200 feet AGL
Weather: -SN  (light snow)

METAR text: KMNH 040115Z AUTO 08004KT 4SM -SN BKN010 OVC014 M08/M09 A2974 RMK AO2
Conditions at: KMNH (MONUMENT/ELBERT , CO, US) observed 0115 UTC 04 March 2015
Temperature: -8.0°C (18°F)
Dewpoint: -9.0°C (16°F) [RH = 92%]
Pressure (altimeter): 29.74 inches Hg (1007.2 mb)
Winds: from the E (80 degrees) at 5 MPH (4 knots; 2.1 m/s)
Visibility: 4 miles (6 km)
Ceiling: 1000 feet AGL
Clouds: broken clouds at 1000 feet AGL
overcast cloud deck at 1400 feet AGL
Weather: -SN  (light snow)

METAR text: KMNH 040056Z AUTO 11007KT 2SM -SN OVC007 M08/M09 A2972 RMK AO2
Conditions at: KMNH (MONUMENT/ELBERT , CO, US) observed 0056 UTC 04 March 2015
Temperature: -8.0°C (18°F)
Dewpoint: -9.0°C (16°F) [RH = 92%]
Pressure (altimeter): 29.72 inches Hg (1006.5 mb)
Winds: from the ESE (110 degrees) at 8 MPH (7 knots; 3.6 m/s)
Visibility: 2.00 miles (3.22 km)
Ceiling: 700 feet AGL
Clouds: overcast cloud deck at 700 feet AGL
Weather: -SN  (light snow)

METAR text: KMNH 040036Z AUTO 12007KT 1 1/2SM -SN OVC007 M08/M09 A2972 RMK AO2
Conditions at: KMNH (MONUMENT/ELBERT , CO, US) observed 0036 UTC 04 March 2015
Temperature: -8.0°C (18°F)
Dewpoint: -9.0°C (16°F) [RH = 92%]
Pressure (altimeter): 29.72 inches Hg (1006.5 mb)
Winds: from the ESE (120 degrees) at 8 MPH (7 knots; 3.6 m/s)
Visibility: 1.50 miles (2.41 km)
Ceiling: 700 feet AGL
Clouds: overcast cloud deck at 700 feet AGL
Weather: -SN  (light snow)

METAR text: KMNH 040015Z AUTO 12007KT 1 1/2SM -SN BKN003 OVC007 M08/M09 A2972 RMK AO2
Conditions at: KMNH (MONUMENT/ELBERT , CO, US) observed 0015 UTC 04 March 2015
Temperature: -8.0°C (18°F)
Dewpoint: -9.0°C (16°F) [RH = 92%]
Pressure (altimeter): 29.72 inches Hg (1006.5 mb)
Winds: from the ESE (120 degrees) at 8 MPH (7 knots; 3.6 m/s)
Visibility: 1.50 miles (2.41 km)
Ceiling: 300 feet AGL
Clouds: broken clouds at 300 feet AGL
overcast cloud deck at 700 feet AGL
Weather: -SN  (light snow)

METAR text: KMNH 032356Z AUTO 12006KT 2SM -SN OVC003 M08/M09 A2972 RMK AO2
Conditions at: KMNH (MONUMENT/ELBERT , CO, US) observed 2356 UTC 03 March 2015
Temperature: -8.0°C (18°F)
Dewpoint: -9.0°C (16°F) [RH = 92%]
Pressure (altimeter): 29.72 inches Hg (1006.5 mb)
Winds: from the ESE (120 degrees) at 7 MPH (6 knots; 3.1 m/s)
Visibility: 2.00 miles (3.22 km)
Ceiling: 300 feet AGL
Clouds: overcast cloud deck at 300 feet AGL
Weather: -SN  (light snow)

METAR text: KMNH 032336Z AUTO 08005KT 1 1/4SM BR OVC001 M08/M09 A2972 RMK AO2
Conditions at: KMNH (MONUMENT/ELBERT , CO, US) observed 2336 UTC 03 March 2015
Temperature: -8.0°C (18°F)
Dewpoint: -9.0°C (16°F) [RH = 92%]
Pressure (altimeter): 29.72 inches Hg (1006.5 mb)
Winds: from the E (80 degrees) at 6 MPH (5 knots; 2.6 m/s)
Visibility: 1.25 miles (2.01 km)
Ceiling: 100 feet AGL
Clouds: overcast cloud deck at 100 feet AGL
Weather: BR  (mist)

METAR text: KMNH 032316Z AUTO 09004KT 1 3/4SM -SN OVC001 M08/M09 A2973 RMK AO2
Conditions at: KMNH (MONUMENT/ELBERT , CO, US) observed 2316 UTC 03 March 2015
Temperature: -8.0°C (18°F)
Dewpoint: -9.0°C (16°F) [RH = 92%]
Pressure (altimeter): 29.73 inches Hg (1006.9 mb)
Winds: from the E (90 degrees) at 5 MPH (4 knots; 2.1 m/s)
Visibility: 1.75 miles (2.82 km)
Ceiling: 100 feet AGL
Clouds: overcast cloud deck at 100 feet AGL
Weather: -SN  (light snow)

METAR text: KMNH 032256Z AUTO 06004KT 3/4SM BR OVC001 M08/M09 A2973 RMK AO2
Conditions at: KMNH (MONUMENT/ELBERT , CO, US) observed 2256 UTC 03 March 2015
Temperature: -8.0°C (18°F)
Dewpoint: -9.0°C (16°F) [RH = 92%]
Pressure (altimeter): 29.73 inches Hg (1006.9 mb)
Winds: from the ENE (60 degrees) at 5 MPH (4 knots; 2.1 m/s)
Visibility: 0.75 miles (1.21 km)
Ceiling: 100 feet AGL
Clouds: overcast cloud deck at 100 feet AGL
Weather: BR  (mist)

METAR text: KMNH 032236Z AUTO 07004KT 3/4SM BR OVC001 M08/M10 A2973 RMK AO2
Conditions at: KMNH (MONUMENT/ELBERT , CO, US) observed 2236 UTC 03 March 2015
Temperature: -8.0°C (18°F)
Dewpoint: -10.0°C (14°F) [RH = 85%]
Pressure (altimeter): 29.73 inches Hg (1006.9 mb)
Winds: from the ENE (70 degrees) at 5 MPH (4 knots; 2.1 m/s)
Visibility: 0.75 miles (1.21 km)
Ceiling: 100 feet AGL
Clouds: overcast cloud deck at 100 feet AGL
Weather: BR  (mist)

METAR text: KMNH 032216Z AUTO 06006KT 1SM BR OVC001 M08/M10 A2973 RMK AO2
Conditions at: KMNH (MONUMENT/ELBERT , CO, US) observed 2216 UTC 03 March 2015
Temperature: -8.0°C (18°F)
Dewpoint: -10.0°C (14°F) [RH = 85%]
Pressure (altimeter): 29.73 inches Hg (1006.9 mb)
Winds: from the ENE (60 degrees) at 7 MPH (6 knots; 3.1 m/s)
Visibility: 1.00 miles (1.61 km)
Ceiling: 100 feet AGL
Clouds: overcast cloud deck at 100 feet AGL
Weather: BR  (mist)

METAR text: KMNH 032156Z AUTO 04005KT 1 1/4SM BR OVC001 M08/M10 A2973 RMK AO2
Conditions at: KMNH (MONUMENT/ELBERT , CO, US) observed 2156 UTC 03 March 2015
Temperature: -8.0°C (18°F)
Dewpoint: -10.0°C (14°F) [RH = 85%]
Pressure (altimeter): 29.73 inches Hg (1006.9 mb)
Winds: from the NE (40 degrees) at 6 MPH (5 knots; 2.6 m/s)
Visibility: 1.25 miles (2.01 km)
Ceiling: 100 feet AGL
Clouds: overcast cloud deck at 100 feet AGL
Weather: BR  (mist)

METAR text: KMNH 032136Z AUTO 05005KT 1/2SM FZFG OVC001 M08/M10 A2972 RMK AO2
Conditions at: KMNH (MONUMENT/ELBERT , CO, US) observed 2136 UTC 03 March 2015
Temperature: -8.0°C (18°F)
Dewpoint: -10.0°C (14°F) [RH = 85%]
Pressure (altimeter): 29.72 inches Hg (1006.5 mb)
Winds: from the NE (50 degrees) at 6 MPH (5 knots; 2.6 m/s)
Visibility: 0.50 miles (0.80 km)
Ceiling: 100 feet AGL
Clouds: overcast cloud deck at 100 feet AGL
Weather: FZFG  (freezing fog)

METAR text: KMNH 032116Z AUTO 06005KT 1/4SM FZFG OVC001 M08/M09 A2973 RMK AO2
Conditions at: KMNH (MONUMENT/ELBERT , CO, US) observed 2116 UTC 03 March 2015
Temperature: -8.0°C (18°F)
Dewpoint: -9.0°C (16°F) [RH = 92%]
Pressure (altimeter): 29.73 inches Hg (1006.9 mb)
Winds: from the ENE (60 degrees) at 6 MPH (5 knots; 2.6 m/s)
Visibility: 0.25 miles (0.40 km)
Ceiling: 100 feet AGL
Clouds: overcast cloud deck at 100 feet AGL
Weather: FZFG  (freezing fog)

METAR text: KMNH 032056Z AUTO 08006KT 1/4SM FZFG OVC001 M08/M10 A2974 RMK AO2
Conditions at: KMNH (MONUMENT/ELBERT , CO, US) observed 2056 UTC 03 March 2015
Temperature: -8.0°C (18°F)
Dewpoint: -10.0°C (14°F) [RH = 85%]
Pressure (altimeter): 29.74 inches Hg (1007.2 mb)
Winds: from the E (80 degrees) at 7 MPH (6 knots; 3.1 m/s)
Visibility: 0.25 miles (0.40 km)
Ceiling: 100 feet AGL
Clouds: overcast cloud deck at 100 feet AGL
Weather: FZFG  (freezing fog)

METAR text: KMNH 032036Z AUTO 05005KT 1/4SM FZFG OVC001 M08/M09 A2975 RMK AO2
Conditions at: KMNH (MONUMENT/ELBERT , CO, US) observed 2036 UTC 03 March 2015
Temperature: -8.0°C (18°F)
Dewpoint: -9.0°C (16°F) [RH = 92%]
Pressure (altimeter): 29.75 inches Hg (1007.5 mb)
Winds: from the NE (50 degrees) at 6 MPH (5 knots; 2.6 m/s)
Visibility: 0.25 miles (0.40 km)
Ceiling: 100 feet AGL
Clouds: overcast cloud deck at 100 feet AGL
Weather: FZFG  (freezing fog)

METAR text: KMNH 032016Z AUTO 06006KT 1SM BR OVC003 M08/M09 A2975 RMK AO2
Conditions at: KMNH (MONUMENT/ELBERT , CO, US) observed 2016 UTC 03 March 2015
Temperature: -8.0°C (18°F)
Dewpoint: -9.0°C (16°F) [RH = 92%]
Pressure (altimeter): 29.75 inches Hg (1007.5 mb)
Winds: from the ENE (60 degrees) at 7 MPH (6 knots; 3.1 m/s)
Visibility: 1.00 miles (1.61 km)
Ceiling: 300 feet AGL
Clouds: overcast cloud deck at 300 feet AGL
Weather: BR  (mist)

METAR text: KMNH 031956Z AUTO 03007KT 7SM OVC003 M07/M09 A2975 RMK AO2
Conditions at: KMNH (MONUMENT/ELBERT , CO, US) observed 1956 UTC 03 March 2015
Temperature: -7.0°C (19°F)
Dewpoint: -9.0°C (16°F) [RH = 86%]
Pressure (altimeter): 29.75 inches Hg (1007.5 mb)
Winds: from the NNE (30 degrees) at 8 MPH (7 knots; 3.6 m/s)
Visibility: 7 miles (11 km)
Ceiling: 300 feet AGL
Clouds: overcast cloud deck at 300 feet AGL
Weather: automated observation with no human augmentation;
there may or may not be significant weather present at this time

METAR text: KMNH 031936Z AUTO 05005KT 7SM OVC003 M07/M08 A2976 RMK AO2
Conditions at: KMNH (MONUMENT/ELBERT , CO, US) observed 1936 UTC 03 March 2015
Temperature: -7.0°C (19°F)
Dewpoint: -8.0°C (18°F) [RH = 93%]
Pressure (altimeter): 29.76 inches Hg (1007.9 mb)
Winds: from the NE (50 degrees) at 6 MPH (5 knots; 2.6 m/s)
Visibility: 7 miles (11 km)
Ceiling: 300 feet AGL
Clouds: overcast cloud deck at 300 feet AGL
Weather: automated observation with no human augmentation;
there may or may not be significant weather present at this time

METAR text: KMNH 031916Z AUTO 06006KT 5SM BR OVC003 M07/M09 A2977 RMK AO2
Conditions at: KMNH (MONUMENT/ELBERT , CO, US) observed 1916 UTC 03 March 2015
Temperature: -7.0°C (19°F)
Dewpoint: -9.0°C (16°F) [RH = 86%]
Pressure (altimeter): 29.77 inches Hg (1008.2 mb)
Winds: from the ENE (60 degrees) at 7 MPH (6 knots; 3.1 m/s)
Visibility: 5 miles (8 km)
Ceiling: 300 feet AGL
Clouds: overcast cloud deck at 300 feet AGL
Weather: BR  (mist)

METAR text: KMNH 031856Z AUTO 04006KT 10SM OVC005 M07/M08 A2978 RMK AO2
Conditions at: KMNH (MONUMENT/ELBERT , CO, US) observed 1856 UTC 03 March 2015
Temperature: -7.0°C (19°F)
Dewpoint: -8.0°C (18°F) [RH = 93%]
Pressure (altimeter): 29.78 inches Hg (1008.5 mb)
Winds: from the NE (40 degrees) at 7 MPH (6 knots; 3.1 m/s)
Visibility: 10 or more miles (16+ km)
Ceiling: 500 feet AGL
Clouds: overcast cloud deck at 500 feet AGL
Weather: automated observation with no human augmentation;
there may or may not be significant weather present at this time

METAR text: KMNH 031836Z AUTO 03007KT 10SM OVC005 M07/M08 A2977 RMK AO2
Conditions at: KMNH (MONUMENT/ELBERT , CO, US) observed 1836 UTC 03 March 2015
Temperature: -7.0°C (19°F)
Dewpoint: -8.0°C (18°F) [RH = 93%]
Pressure (altimeter): 29.77 inches Hg (1008.2 mb)
Winds: from the NNE (30 degrees) at 8 MPH (7 knots; 3.6 m/s)
Visibility: 10 or more miles (16+ km)
Ceiling: 500 feet AGL
Clouds: overcast cloud deck at 500 feet AGL
Weather: automated observation with no human augmentation;
there may or may not be significant weather present at this time

METAR text: KMNH 031816Z AUTO 03006KT 7SM OVC005 M07/M08 A2979 RMK AO2
Conditions at: KMNH (MONUMENT/ELBERT , CO, US) observed 1816 UTC 03 March 2015
Temperature: -7.0°C (19°F)
Dewpoint: -8.0°C (18°F) [RH = 93%]
Pressure (altimeter): 29.79 inches Hg (1008.9 mb)
Winds: from the NNE (30 degrees) at 7 MPH (6 knots; 3.1 m/s)
Visibility: 7 miles (11 km)
Ceiling: 500 feet AGL
Clouds: overcast cloud deck at 500 feet AGL
Weather: automated observation with no human augmentation;
there may or may not be significant weather present at this time

METAR text: KMNH 031755Z AUTO 01008KT 5SM -SN OVC005 M07/M08 A2979 RMK AO2
Conditions at: KMNH (MONUMENT/ELBERT , CO, US) observed 1755 UTC 03 March 2015
Temperature: -7.0°C (19°F)
Dewpoint: -8.0°C (18°F) [RH = 93%]
Pressure (altimeter): 29.79 inches Hg (1008.9 mb)
Winds: from the N (10 degrees) at 9 MPH (8 knots; 4.2 m/s)
Visibility: 5 miles (8 km)
Ceiling: 500 feet AGL
Clouds: overcast cloud deck at 500 feet AGL
Weather: -SN  (light snow)

METAR text: KMNH 031736Z AUTO 02007KT 5SM -SN OVC005 M07/M08 A2981 RMK AO2
Conditions at: KMNH (MONUMENT/ELBERT , CO, US) observed 1736 UTC 03 March 2015
Temperature: -7.0°C (19°F)
Dewpoint: -8.0°C (18°F) [RH = 93%]
Pressure (altimeter): 29.81 inches Hg (1009.6 mb)
Winds: from the NNE (20 degrees) at 8 MPH (7 knots; 3.6 m/s)
Visibility: 5 miles (8 km)
Ceiling: 500 feet AGL
Clouds: overcast cloud deck at 500 feet AGL
Weather: -SN  (light snow)

METAR text: KMNH 031716Z AUTO 04007KT 1 3/4SM -SN OVC005 M07/M08 A2981 RMK AO2
Conditions at: KMNH (MONUMENT/ELBERT , CO, US) observed 1716 UTC 03 March 2015
Temperature: -7.0°C (19°F)
Dewpoint: -8.0°C (18°F) [RH = 93%]
Pressure (altimeter): 29.81 inches Hg (1009.6 mb)
Winds: from the NE (40 degrees) at 8 MPH (7 knots; 3.6 m/s)
Visibility: 1.75 miles (2.82 km)
Ceiling: 500 feet AGL
Clouds: overcast cloud deck at 500 feet AGL
Weather: -SN  (light snow)

METAR text: KMNH 031656Z AUTO 01007KT 1/2SM -SN OVC001 M07/M07 A2981 RMK AO2
Conditions at: KMNH (MONUMENT/ELBERT , CO, US) observed 1656 UTC 03 March 2015
Temperature: -7.0°C (19°F)
Dewpoint: -7.0°C (19°F) [RH = 100%]
Pressure (altimeter): 29.81 inches Hg (1009.6 mb)
Winds: from the N (10 degrees) at 8 MPH (7 knots; 3.6 m/s)
Visibility: 0.50 miles (0.80 km)
Ceiling: 100 feet AGL
Clouds: overcast cloud deck at 100 feet AGL
Weather: -SN  (light snow)

METAR text: KMNH 031635Z AUTO 02007KT M1/4SM -SN OVC001 M07/M07 A2982 RMK AO2
Conditions at: KMNH (MONUMENT/ELBERT , CO, US) observed 1635 UTC 03 March 2015
Temperature: -7.0°C (19°F)
Dewpoint: -7.0°C (19°F) [RH = 100%]
Pressure (altimeter): 29.82 inches Hg (1009.9 mb)
Winds: from the NNE (20 degrees) at 8 MPH (7 knots; 3.6 m/s)
Visibility: 0.25 miles (0.40 km)
Ceiling: 100 feet AGL
Clouds: overcast cloud deck at 100 feet AGL
Weather: -SN  (light snow)

METAR text: KMNH 031616Z AUTO 01008KT M1/4SM FZFG OVC001 M07/M07 A2981 RMK AO2
Conditions at: KMNH (MONUMENT/ELBERT , CO, US) observed 1616 UTC 03 March 2015
Temperature: -7.0°C (19°F)
Dewpoint: -7.0°C (19°F) [RH = 100%]
Pressure (altimeter): 29.81 inches Hg (1009.6 mb)
Winds: from the N (10 degrees) at 9 MPH (8 knots; 4.2 m/s)
Visibility: 0.25 miles (0.40 km)
Ceiling: 100 feet AGL
Clouds: overcast cloud deck at 100 feet AGL
Weather: FZFG  (freezing fog)

METAR text: KMNH 031556Z AUTO 35009KT M1/4SM FZFG OVC001 M07/M07 A2981 RMK AO2
Conditions at: KMNH (MONUMENT/ELBERT , CO, US) observed 1556 UTC 03 March 2015
Temperature: -7.0°C (19°F)
Dewpoint: -7.0°C (19°F) [RH = 100%]
Pressure (altimeter): 29.81 inches Hg (1009.6 mb)
Winds: from the N (350 degrees) at 10 MPH (9 knots; 4.7 m/s)
Visibility: 0.25 miles (0.40 km)
Ceiling: 100 feet AGL
Clouds: overcast cloud deck at 100 feet AGL
Weather: FZFG  (freezing fog)

METAR text: KMNH 031536Z AUTO 35007KT M1/4SM FZFG OVC001 M06/M07 A2981 RMK AO2
Conditions at: KMNH (MONUMENT/ELBERT , CO, US) observed 1536 UTC 03 March 2015
Temperature: -6.0°C (21°F)
Dewpoint: -7.0°C (19°F) [RH = 93%]
Pressure (altimeter): 29.81 inches Hg (1009.6 mb)
Winds: from the N (350 degrees) at 8 MPH (7 knots; 3.6 m/s)
Visibility: 0.25 miles (0.40 km)
Ceiling: 100 feet AGL
Clouds: overcast cloud deck at 100 feet AGL
Weather: FZFG  (freezing fog)

METAR text: KMNH 031516Z AUTO 02011KT M1/4SM -SN OVC001 M06/M07 A2980 RMK AO2
Conditions at: KMNH (MONUMENT/ELBERT , CO, US) observed 1516 UTC 03 March 2015
Temperature: -6.0°C (21°F)
Dewpoint: -7.0°C (19°F) [RH = 93%]
Pressure (altimeter): 29.80 inches Hg (1009.2 mb)
Winds: from the NNE (20 degrees) at 13 MPH (11 knots; 5.7 m/s)
Visibility: 0.25 miles (0.40 km)
Ceiling: 100 feet AGL
Clouds: overcast cloud deck at 100 feet AGL
Weather: -SN  (light snow)

METAR text: KMNH 031456Z AUTO 02011G14KT M1/4SM -SN OVC001 M06/M07 A2978 RMK AO2
Conditions at: KMNH (MONUMENT/ELBERT , CO, US) observed 1456 UTC 03 March 2015
Temperature: -6.0°C (21°F)
Dewpoint: -7.0°C (19°F) [RH = 93%]
Pressure (altimeter): 29.78 inches Hg (1008.5 mb)
Winds: from the NNE (20 degrees) at 13 MPH (11 knots; 5.7 m/sgusting to 16 MPH (14 knots; 7.3 m/s)
Visibility: 0.25 miles (0.40 km)
Ceiling: 100 feet AGL
Clouds: overcast cloud deck at 100 feet AGL
Weather: -SN  (light snow)

METAR text: KMNH 031435Z AUTO 03009G19KT M1/4SM -SN OVC001 M06/M07 A2975 RMK AO2
Conditions at: KMNH (MONUMENT/ELBERT , CO, US) observed 1435 UTC 03 March 2015
Temperature: -6.0°C (21°F)
Dewpoint: -7.0°C (19°F) [RH = 93%]
Pressure (altimeter): 29.75 inches Hg (1007.5 mb)
Winds: from the NNE (30 degrees) at 10 MPH (9 knots; 4.7 m/sgusting to 22 MPH (19 knots; 9.9 m/s)
Visibility: 0.25 miles (0.40 km)
Ceiling: 100 feet AGL
Clouds: overcast cloud deck at 100 feet AGL
Weather: -SN  (light snow)

METAR text: KMNH 031416Z AUTO 23008KT 10SM CLR M02/M11 A2972 RMK AO2
Conditions at: KMNH (MONUMENT/ELBERT , CO, US) observed 1416 UTC 03 March 2015
Temperature: -2.0°C (28°F)
Dewpoint: -11.0°C (12°F) [RH = 50%]
Pressure (altimeter): 29.72 inches Hg (1006.5 mb)
Winds: from the SW (230 degrees) at 9 MPH (8 knots; 4.2 m/s)
Visibility: 10 or more miles (16+ km)
Ceiling: at least 12,000 feet AGL
Clouds: sky clear below 12,000 feet AGL
Weather: automated observation with no human augmentation;
there may or may not be significant weather present at this time

METAR text: KMNH 031356Z AUTO 24008KT 10SM CLR M06/M11 A2971 RMK AO2
Conditions at: KMNH (MONUMENT/ELBERT , CO, US) observed 1356 UTC 03 March 2015
Temperature: -6.0°C (21°F)
Dewpoint: -11.0°C (12°F) [RH = 68%]
Pressure (altimeter): 29.71 inches Hg (1006.2 mb)
Winds: from the WSW (240 degrees) at 9 MPH (8 knots; 4.2 m/s)
Visibility: 10 or more miles (16+ km)
Ceiling: at least 12,000 feet AGL
Clouds: sky clear below 12,000 feet AGL
Weather: automated observation with no human augmentation;
there may or may not be significant weather present at this time

METAR text: KMNH 031336Z AUTO 24008KT 10SM CLR M05/M12 A2971 RMK AO2
Conditions at: KMNH (MONUMENT/ELBERT , CO, US) observed 1336 UTC 03 March 2015
Temperature: -5.0°C (23°F)
Dewpoint: -12.0°C (10°F) [RH = 58%]
Pressure (altimeter): 29.71 inches Hg (1006.2 mb)
Winds: from the WSW (240 degrees) at 9 MPH (8 knots; 4.2 m/s)
Visibility: 10 or more miles (16+ km)
Ceiling: at least 12,000 feet AGL
Clouds: sky clear below 12,000 feet AGL
Weather: automated observation with no human augmentation;
there may or may not be significant weather present at this time

METAR text: KMNH 031316Z AUTO 24004KT 10SM CLR M04/M12 A2971 RMK AO2
Conditions at: KMNH (MONUMENT/ELBERT , CO, US) observed 1316 UTC 03 March 2015
Temperature: -4.0°C (25°F)
Dewpoint: -12.0°C (10°F) [RH = 54%]
Pressure (altimeter): 29.71 inches Hg (1006.2 mb)
Winds: from the WSW (240 degrees) at 5 MPH (4 knots; 2.1 m/s)
Visibility: 10 or more miles (16+ km)
Ceiling: at least 12,000 feet AGL
Clouds: sky clear below 12,000 feet AGL
Weather: automated observation with no human augmentation;
there may or may not be significant weather present at this time

METAR text: KMNH 031255Z AUTO 23007KT 10SM CLR M02/M12 A2971 RMK AO2
Conditions at: KMNH (MONUMENT/ELBERT , CO, US) observed 1255 UTC 03 March 2015
Temperature: -2.0°C (28°F)
Dewpoint: -12.0°C (10°F) [RH = 46%]
Pressure (altimeter): 29.71 inches Hg (1006.2 mb)
Winds: from the SW (230 degrees) at 8 MPH (7 knots; 3.6 m/s)
Visibility: 10 or more miles (16+ km)
Ceiling: at least 12,000 feet AGL
Clouds: sky clear below 12,000 feet AGL
Weather: automated observation with no human augmentation;
there may or may not be significant weather present at this time

METAR text: KMNH 031236Z AUTO 23006KT 10SM CLR M02/M12 A2970 RMK AO2
Conditions at: KMNH (MONUMENT/ELBERT , CO, US) observed 1236 UTC 03 March 2015
Temperature: -2.0°C (28°F)
Dewpoint: -12.0°C (10°F) [RH = 46%]
Pressure (altimeter): 29.70 inches Hg (1005.8 mb)
Winds: from the SW (230 degrees) at 7 MPH (6 knots; 3.1 m/s)
Visibility: 10 or more miles (16+ km)
Ceiling: at least 12,000 feet AGL
Clouds: sky clear below 12,000 feet AGL
Weather: automated observation with no human augmentation;
there may or may not be significant weather present at this time

METAR text: KMNH 031216Z AUTO 24008KT 10SM CLR M02/M11 A2969 RMK AO2
Conditions at: KMNH (MONUMENT/ELBERT , CO, US) observed 1216 UTC 03 March 2015
Temperature: -2.0°C (28°F)
Dewpoint: -11.0°C (12°F) [RH = 50%]
Pressure (altimeter): 29.69 inches Hg (1005.5 mb)
Winds: from the WSW (240 degrees) at 9 MPH (8 knots; 4.2 m/s)
Visibility: 10 or more miles (16+ km)
Ceiling: at least 12,000 feet AGL
Clouds: sky clear below 12,000 feet AGL
Weather: automated observation with no human augmentation;
there may or may not be significant weather present at this time

METAR text: KMNH 031155Z AUTO 23009KT 10SM CLR M02/M11 A2967 RMK AO2
Conditions at: KMNH (MONUMENT/ELBERT , CO, US) observed 1155 UTC 03 March 2015
Temperature: -2.0°C (28°F)
Dewpoint: -11.0°C (12°F) [RH = 50%]
Pressure (altimeter): 29.67 inches Hg (1004.8 mb)
Winds: from the SW (230 degrees) at 10 MPH (9 knots; 4.7 m/s)
Visibility: 10 or more miles (16+ km)
Ceiling: at least 12,000 feet AGL
Clouds: sky clear below 12,000 feet AGL
Weather: automated observation with no human augmentation;
there may or may not be significant weather present at this time

METAR text: KMNH 031136Z AUTO 24006KT 10SM CLR M02/M11 A2966 RMK AO2
Conditions at: KMNH (MONUMENT/ELBERT , CO, US) observed 1136 UTC 03 March 2015
Temperature: -2.0°C (28°F)
Dewpoint: -11.0°C (12°F) [RH = 50%]
Pressure (altimeter): 29.66 inches Hg (1004.5 mb)
Winds: from the WSW (240 degrees) at 7 MPH (6 knots; 3.1 m/s)
Visibility: 10 or more miles (16+ km)
Ceiling: at least 12,000 feet AGL
Clouds: sky clear below 12,000 feet AGL
Weather: automated observation with no human augmentation;
there may or may not be significant weather present at this time

METAR text: KMNH 031116Z AUTO 22011KT 10SM CLR M01/M11 A2966 RMK AO2
Conditions at: KMNH (MONUMENT/ELBERT , CO, US) observed 1116 UTC 03 March 2015
Temperature: -1.0°C (30°F)
Dewpoint: -11.0°C (12°F) [RH = 47%]
Pressure (altimeter): 29.66 inches Hg (1004.5 mb)
Winds: from the SW (220 degrees) at 13 MPH (11 knots; 5.7 m/s)
Visibility: 10 or more miles (16+ km)
Ceiling: at least 12,000 feet AGL
Clouds: sky clear below 12,000 feet AGL
Weather: automated observation with no human augmentation;
there may or may not be significant weather present at this time

METAR text: KMNH 031056Z AUTO 22006KT 10SM CLR M01/M11 A2965 RMK AO2
Conditions at: KMNH (MONUMENT/ELBERT , CO, US) observed 1056 UTC 03 March 2015
Temperature: -1.0°C (30°F)
Dewpoint: -11.0°C (12°F) [RH = 47%]
Pressure (altimeter): 29.65 inches Hg (1004.1 mb)
Winds: from the SW (220 degrees) at 7 MPH (6 knots; 3.1 m/s)
Visibility: 10 or more miles (16+ km)
Ceiling: at least 12,000 feet AGL
Clouds: sky clear below 12,000 feet AGL
Weather: automated observation with no human augmentation;
there may or may not be significant weather present at this time

METAR text: KMNH 031036Z AUTO 23010KT 10SM CLR M01/M11 A2965 RMK AO2
Conditions at: KMNH (MONUMENT/ELBERT , CO, US) observed 1036 UTC 03 March 2015
Temperature: -1.0°C (30°F)
Dewpoint: -11.0°C (12°F) [RH = 47%]
Pressure (altimeter): 29.65 inches Hg (1004.1 mb)
Winds: from the SW (230 degrees) at 12 MPH (10 knots; 5.2 m/s)
Visibility: 10 or more miles (16+ km)
Ceiling: at least 12,000 feet AGL
Clouds: sky clear below 12,000 feet AGL
Weather: automated observation with no human augmentation;
there may or may not be significant weather present at this time

METAR text: KMNH 031015Z AUTO 23013KT 10SM CLR 00/M11 A2965 RMK AO2
Conditions at: KMNH (MONUMENT/ELBERT , CO, US) observed 1015 UTC 03 March 2015
Temperature: 0.0°C (32°F)
Dewpoint: -11.0°C (12°F) [RH = 43%]
Pressure (altimeter): 29.65 inches Hg (1004.1 mb)
Winds: from the SW (230 degrees) at 15 MPH (13 knots; 6.8 m/s)
Visibility: 10 or more miles (16+ km)
Ceiling: at least 12,000 feet AGL
Clouds: sky clear below 12,000 feet AGL
Weather: automated observation with no human augmentation;
there may or may not be significant weather present at this time

METAR text: KMNH 030955Z AUTO 24011KT 10SM CLR 00/M10 A2964 RMK AO2
Conditions at: KMNH (MONUMENT/ELBERT , CO, US) observed 0955 UTC 03 March 2015
Temperature: 0.0°C (32°F)
Dewpoint: -10.0°C (14°F) [RH = 47%]
Pressure (altimeter): 29.64 inches Hg (1003.8 mb)
Winds: from the WSW (240 degrees) at 13 MPH (11 knots; 5.7 m/s)
Visibility: 10 or more miles (16+ km)
Ceiling: at least 12,000 feet AGL
Clouds: sky clear below 12,000 feet AGL
Weather: automated observation with no human augmentation;
there may or may not be significant weather present at this time

METAR text: KMNH 030936Z AUTO 23012KT 10SM CLR 00/M11 A2965 RMK AO2
Conditions at: KMNH (MONUMENT/ELBERT , CO, US) observed 0936 UTC 03 March 2015
Temperature: 0.0°C (32°F)
Dewpoint: -11.0°C (12°F) [RH = 43%]
Pressure (altimeter): 29.65 inches Hg (1004.1 mb)
Winds: from the SW (230 degrees) at 14 MPH (12 knots; 6.2 m/s)
Visibility: 10 or more miles (16+ km)
Ceiling: at least 12,000 feet AGL
Clouds: sky clear below 12,000 feet AGL
Weather: automated observation with no human augmentation;
there may or may not be significant weather present at this time

METAR text: KMNH 030916Z AUTO 23014KT 10SM CLR 00/M11 A2964 RMK AO2
Conditions at: KMNH (MONUMENT/ELBERT , CO, US) observed 0916 UTC 03 March 2015
Temperature: 0.0°C (32°F)
Dewpoint: -11.0°C (12°F) [RH = 43%]
Pressure (altimeter): 29.64 inches Hg (1003.8 mb)
Winds: from the SW (230 degrees) at 16 MPH (14 knots; 7.3 m/s)
Visibility: 10 or more miles (16+ km)
Ceiling: at least 12,000 feet AGL
Clouds: sky clear below 12,000 feet AGL
Weather: automated observation with no human augmentation;
there may or may not be significant weather present at this time

METAR text: KMNH 030856Z AUTO 23015KT 10SM CLR 01/M10 A2963 RMK AO2
Conditions at: KMNH (MONUMENT/ELBERT , CO, US) observed 0856 UTC 03 March 2015
Temperature: 1.0°C (34°F)
Dewpoint: -10.0°C (14°F) [RH = 44%]
Pressure (altimeter): 29.63 inches Hg (1003.5 mb)
Winds: from the SW (230 degrees) at 17 MPH (15 knots; 7.8 m/s)
Visibility: 10 or more miles (16+ km)
Ceiling: at least 12,000 feet AGL
Clouds: sky clear below 12,000 feet AGL
Weather: automated observation with no human augmentation;
there may or may not be significant weather present at this time

METAR text: KMNH 030836Z AUTO 23016G22KT 10SM CLR 01/M09 A2963 RMK AO2
Conditions at: KMNH (MONUMENT/ELBERT , CO, US) observed 0836 UTC 03 March 2015
Temperature: 1.0°C (34°F)
Dewpoint: -9.0°C (16°F) [RH = 47%]
Pressure (altimeter): 29.63 inches Hg (1003.5 mb)
Winds: from the SW (230 degrees) at 18 MPH (16 knots; 8.3 m/sgusting to 25 MPH (22 knots; 11.4 m/s)
Visibility: 10 or more miles (16+ km)
Ceiling: at least 12,000 feet AGL
Clouds: sky clear below 12,000 feet AGL
Weather: automated observation with no human augmentation;
there may or may not be significant weather present at this time

METAR text: KMNH 030816Z AUTO 24020G25KT 10SM CLR 01/M09 A2963 RMK AO2
Conditions at: KMNH (MONUMENT/ELBERT , CO, US) observed 0816 UTC 03 March 2015
Temperature: 1.0°C (34°F)
Dewpoint: -9.0°C (16°F) [RH = 47%]
Pressure (altimeter): 29.63 inches Hg (1003.5 mb)
Winds: from the WSW (240 degrees) at 23 MPH (20 knots; 10.4 m/sgusting to 29 MPH (25 knots; 13.0 m/s)
Visibility: 10 or more miles (16+ km)
Ceiling: at least 12,000 feet AGL
Clouds: sky clear below 12,000 feet AGL
Weather: automated observation with no human augmentation;
there may or may not be significant weather present at this time